Nearby METAR Reports

 

LIRQ - Firenze, Italy
Distance from station: NNE 20km
Actualización: 09/12/2018 23:20
Niebla, Parcialmente nuboso
Niebla, Parcialmente nuboso
 Viento del varies
Viento: varies 2 km/h
Temperatura: 5°C
Rocío: 5°C
Humedad: 100%
Barómetro: 1011 hPa
Resumen: Niebla
Clouds: Parcialmente nuboso
Visibility: 0 km
2018/12/09 22:20 LIRQ 092220Z VRB01KT 0150 R05/0500D FG NSC 05/05 Q1011
LIRP - Pisa, Italy
Distance from station: O 55km
Actualización: 09/12/2018 23:15
Despejado
Despejado
 Viento del N
Viento: N 4 km/h
Temperatura: 9°C
Rocío: 9°C
Humedad: 100%
Barómetro: 1010 hPa
Resumen: Despejado
Visibility: greater than 10 km
2018/12/09 22:15 LIRP 092215Z 36002KT CAVOK 09/09 Q1010 NOSIG
 
LIVC - Monte Cimone, Italy
Distance from station: NNO 69km
Actualización: 05/12/2018 00:55
NOT Current
Despejado
Despejado
 Viento del NNE
Viento: NNE 15 km/h
Temperatura: 2°C
Wind Chill: -2°C
Rocío: -8°C
Humedad: 48%
Barómetro: 1023 hPa
Resumen: Despejado
Visibility: greater than 10 km
2018/12/04 23:55 LIVC 042355Z 02008KT CAVOK 02/M08 Q1023
LIRS - Grosseto, Italy
Distance from station: S 98km
Actualización: 09/12/2018 22:55
Few Clouds
Few Clouds
 Viento del SO
Viento: SO 11 km/h
Temperatura: 13°C
Rocío: 9°C
Humedad: 77%
Barómetro: 1011 hPa
Clouds: Few Clouds
Visibility: 10 km
Cloud details: Few Clouds 610 m
2018/12/09 21:55 LIRS 092155Z 23006KT 9999 FEW020 13/09 Q1011